createdAt,value
2022-09-16T00:00:59.981Z,5.63
2022-09-16T00:03:27.780Z,8.68
2022-09-16T00:05:55.394Z,5.30
2022-09-16T00:08:23.340Z,6.05
2022-09-16T00:10:50.978Z,4.82
2022-09-16T00:13:19.310Z,3.80
2022-09-16T00:15:49.225Z,6.30
2022-09-16T00:18:16.840Z,3.95
2022-09-16T00:20:52.740Z,6.47
2022-09-16T00:23:20.565Z,4.88
2022-09-16T00:25:52.790Z,4.80
2022-09-16T00:28:22.325Z,8.68
2022-09-16T00:30:50.466Z,6.25
2022-09-16T00:33:19.013Z,12.68
2022-09-16T00:35:47.157Z,5.53
2022-09-16T00:38:14.878Z,7.10
2022-09-16T00:40:50.302Z,5.00
2022-09-16T00:43:19.330Z,6.03
2022-09-16T00:45:56.803Z,4.00
2022-09-16T00:48:27.826Z,4.85
2022-09-16T00:51:02.064Z,6.60
2022-09-16T00:53:39.479Z,4.38
2022-09-16T00:56:14.189Z,3.83
2022-09-16T00:58:44.533Z,5.40
2022-09-16T01:01:12.194Z,4.95
2022-09-16T01:03:48.913Z,4.57
2022-09-16T01:06:18.462Z,5.50
2022-09-16T01:08:46.387Z,3.63
2022-09-16T01:11:13.945Z,8.60
2022-09-16T01:13:43.462Z,4.93
2022-09-16T01:16:25.323Z,5.45
2022-09-16T01:18:59.773Z,8.43
2022-09-16T01:22:11.167Z,3.30
2022-09-16T01:24:50.209Z,4.55
2022-09-16T01:27:39.366Z,4.47
2022-09-16T01:30:31.649Z,4.53
2022-09-16T01:33:17.929Z,5.95
2022-09-16T01:35:57.044Z,3.42
2022-09-16T01:38:55.644Z,6.13
2022-09-16T01:41:35.887Z,3.92
2022-09-16T01:44:21.980Z,7.13
2022-09-16T01:47:04.206Z,4.53
2022-09-16T01:50:07.139Z,5.40
2022-09-16T01:52:38.184Z,5.00
2022-09-16T01:55:10.046Z,5.03
2022-09-16T01:57:40.334Z,7.63
2022-09-16T02:00:11.144Z,5.03
2022-09-16T02:03:00.719Z,8.50
2022-09-16T02:05:37.730Z,4.70
2022-09-16T02:08:17.733Z,6.88
2022-09-16T02:10:49.368Z,5.28
2022-09-16T02:15:51.394Z,7.07
2022-09-16T02:18:25.067Z,5.57
2022-09-16T02:20:54.707Z,4.43
2022-09-16T02:23:33.329Z,9.38
2022-09-16T02:26:05.459Z,5.38
2022-09-16T02:28:41.398Z,7.78
2022-09-16T02:31:13.692Z,5.57
2022-09-16T02:33:47.251Z,6.80
2022-09-16T02:36:20.736Z,6.78
2022-09-16T02:38:54.256Z,5.18
2022-09-16T02:41:23.300Z,6.65
2022-09-16T02:43:51.140Z,5.28
2022-09-16T02:46:21.723Z,4.50
2022-09-16T02:49:42.150Z,6.97
2022-09-16T02:52:40.226Z,7.72
2022-09-16T02:55:25.358Z,9.43
2022-09-16T02:57:53.102Z,8.45
2022-09-16T03:00:20.801Z,7.35
2022-09-16T03:02:48.671Z,7.90
2022-09-16T03:05:16.276Z,8.05
2022-09-16T03:07:43.900Z,9.05
2022-09-16T03:10:15.073Z,11.73
2022-09-16T03:12:58.075Z,15.27
2022-09-16T03:15:52.388Z,12.73
2022-09-16T03:18:37.914Z,12.20
2022-09-16T03:21:17.473Z,13.30
2022-09-16T03:24:06.294Z,16.13
2022-09-16T03:26:46.718Z,10.73
2022-09-16T03:29:45.689Z,11.98
2022-09-16T03:32:27.773Z,14.32
2022-09-16T03:37:34.403Z,12.63
2022-09-16T03:40:11.066Z,12.55
2022-09-16T03:42:43.494Z,12.23
2022-09-16T03:45:19.339Z,13.05
2022-09-16T03:47:49.571Z,12.90
2022-09-16T03:50:19.066Z,13.00
2022-09-16T03:52:46.867Z,13.77
2022-09-16T03:55:15.853Z,12.60
2022-09-16T03:57:43.510Z,12.40
2022-09-16T04:00:11.866Z,11.25
2022-09-16T04:02:39.645Z,11.57
2022-09-16T04:05:08.286Z,7.80
2022-09-16T04:07:36.519Z,10.68
2022-09-16T04:10:05.770Z,9.25
2022-09-16T04:12:33.881Z,9.30
2022-09-16T04:15:01.438Z,10.35
2022-09-16T04:17:32.251Z,8.77
2022-09-16T04:19:59.946Z,5.70
2022-09-16T04:22:31.461Z,10.55
2022-09-16T04:24:59.108Z,7.57
2022-09-16T04:27:27.026Z,11.25
2022-09-16T04:29:54.572Z,10.52
2022-09-16T04:32:22.187Z,10.85
2022-09-16T04:34:49.850Z,6.30
2022-09-16T04:37:17.355Z,12.88
2022-09-16T04:39:45.363Z,11.52
2022-09-16T04:42:13.019Z,7.95
2022-09-16T04:44:40.564Z,11.60
2022-09-16T04:47:08.204Z,15.13
2022-09-16T04:49:35.795Z,15.30
2022-09-16T04:52:03.547Z,12.32
2022-09-16T04:54:31.124Z,14.40
2022-09-16T04:56:58.672Z,13.32
2022-09-16T04:59:26.195Z,17.88
2022-09-16T05:01:53.884Z,16.38
2022-09-16T05:04:21.632Z,17.27
2022-09-16T05:06:49.153Z,14.43
2022-09-16T05:09:16.800Z,18.80
2022-09-16T05:11:44.418Z,16.73
2022-09-16T05:14:16.060Z,17.77
2022-09-16T05:19:13.559Z,13.18
2022-09-16T05:21:42.050Z,16.35
2022-09-16T05:24:11.878Z,14.88
2022-09-16T05:26:42.142Z,18.83
2022-09-16T05:29:13.601Z,13.50
2022-09-16T05:31:42.918Z,15.90
2022-09-16T05:34:19.082Z,16.52
2022-09-16T05:36:48.314Z,18.60
2022-09-16T05:39:25.911Z,16.92
2022-09-16T05:41:56.553Z,16.60
2022-09-16T05:44:24.968Z,17.85
2022-09-16T05:46:53.181Z,18.23
2022-09-16T05:49:21.367Z,17.25
2022-09-16T05:51:50.374Z,14.98
2022-09-16T05:54:19.154Z,17.98
2022-09-16T05:56:47.625Z,19.15
2022-09-16T05:59:16.368Z,19.83
2022-09-16T06:01:44.956Z,19.73
2022-09-16T06:04:14.678Z,12.68
2022-09-16T06:06:44.379Z,13.13
2022-09-16T06:09:13.637Z,13.30
2022-09-16T06:11:44.802Z,14.55
2022-09-16T06:14:13.291Z,14.93
2022-09-16T06:16:41.372Z,10.00
2022-09-16T06:19:13.266Z,19.83
2022-09-16T06:21:41.905Z,13.18
2022-09-16T06:24:10.226Z,12.57
2022-09-16T06:26:39.847Z,13.18
2022-09-16T06:29:08.266Z,12.88
2022-09-16T06:31:36.788Z,11.30
2022-09-16T06:34:05.489Z,15.75
2022-09-16T06:36:35.727Z,12.15
2022-09-16T06:39:04.351Z,11.50
2022-09-16T06:41:33.592Z,10.85
2022-09-16T06:44:01.394Z,9.82
2022-09-16T06:46:29.712Z,9.15
2022-09-16T06:49:00.400Z,10.32
2022-09-16T06:51:31.505Z,8.75
2022-09-16T06:54:07.544Z,11.70
2022-09-16T06:56:37.721Z,9.80
2022-09-16T06:59:06.297Z,7.90
2022-09-16T07:01:34.442Z,15.23
2022-09-16T07:04:05.515Z,10.70
2022-09-16T07:09:22.307Z,11.07
2022-09-16T07:11:49.960Z,17.77
2022-09-16T07:14:17.505Z,12.18
2022-09-16T07:16:45.197Z,12.40
2022-09-16T07:19:12.769Z,9.45
2022-09-16T07:21:41.673Z,8.52
2022-09-16T07:24:12.169Z,12.35
2022-09-16T07:26:41.194Z,11.80
2022-09-16T07:29:14.075Z,9.35
2022-09-16T07:31:42.048Z,10.63
2022-09-16T07:34:11.641Z,8.48
2022-09-16T07:36:44.486Z,10.77
2022-09-16T07:39:13.721Z,8.45
2022-09-16T07:41:43.134Z,14.50
2022-09-16T07:44:13.586Z,12.15
2022-09-16T07:46:41.400Z,10.52
2022-09-16T07:49:11.703Z,9.10
2022-09-16T07:51:39.323Z,10.27
2022-09-16T07:54:11.116Z,9.55
2022-09-16T07:56:40.736Z,9.25
2022-09-16T07:59:14.417Z,10.77
2022-09-16T08:01:45.248Z,8.98
2022-09-16T08:04:13.744Z,8.50
2022-09-16T08:06:41.525Z,11.10
2022-09-16T08:09:27.307Z,6.85
2022-09-16T08:11:56.607Z,7.30
2022-09-16T08:14:24.162Z,7.18
2022-09-16T08:16:51.852Z,8.10
2022-09-16T08:19:20.642Z,6.45
2022-09-16T08:21:48.410Z,8.00
2022-09-16T08:24:16.531Z,7.78
2022-09-16T08:26:44.147Z,9.32
2022-09-16T08:29:12.282Z,8.55
2022-09-16T08:31:40.117Z,6.53
2022-09-16T08:34:07.650Z,7.20
2022-09-16T08:36:35.292Z,8.85
2022-09-16T08:39:03.118Z,8.27
2022-09-16T08:41:49.231Z,5.70
2022-09-16T08:44:34.781Z,5.15
2022-09-16T08:47:09.429Z,9.20
2022-09-16T08:49:44.151Z,4.78
2022-09-16T08:52:38.067Z,6.90
2022-09-16T08:55:21.830Z,5.25
2022-09-16T08:57:58.116Z,6.80
2022-09-16T09:00:25.793Z,4.50
2022-09-16T09:03:08.002Z,8.20
2022-09-16T09:05:56.561Z,4.20
2022-09-16T09:08:46.968Z,3.67
2022-09-16T09:11:28.118Z,2.50
2022-09-16T09:14:01.675Z,4.22
2022-09-16T09:16:55.439Z,5.28
2022-09-16T09:19:41.423Z,2.40
2022-09-16T09:22:27.698Z,3.45
2022-09-16T09:25:23.434Z,2.35
2022-09-16T09:28:00.066Z,4.70
2022-09-16T09:30:28.812Z,2.22
2022-09-16T09:33:41.336Z,3.08
2022-09-16T09:36:05.186Z,3.75
2022-09-16T09:38:58.146Z,1.77
2022-09-16T09:41:36.294Z,3.42
2022-09-16T09:44:22.365Z,4.45
2022-09-16T09:46:55.401Z,4.65
2022-09-16T09:49:46.643Z,3.20
2022-09-16T09:52:28.236Z,4.30
2022-09-16T09:54:58.606Z,3.38
2022-09-16T09:57:52.473Z,5.78
2022-09-16T10:00:23.082Z,3.55
2022-09-16T10:02:50.642Z,3.28
2022-09-16T10:05:23.426Z,2.15
2022-09-16T10:07:53.796Z,2.40
2022-09-16T10:10:24.686Z,3.92
2022-09-16T10:12:52.660Z,2.38
2022-09-16T10:15:31.858Z,2.17
2022-09-16T10:18:01.694Z,0.77
2022-09-16T10:20:38.711Z,1.73
2022-09-16T10:23:15.292Z,1.77
2022-09-16T10:25:43.499Z,3.53
2022-09-16T10:28:25.479Z,2.63
2022-09-16T10:30:56.094Z,1.20
2022-09-16T10:33:28.223Z,2.33
2022-09-16T10:36:03.367Z,2.00
2022-09-16T10:38:41.504Z,1.75
2022-09-16T10:41:15.602Z,4.13
2022-09-16T10:44:17.336Z,2.42
2022-09-16T10:46:58.732Z,1.50
2022-09-16T10:49:34.101Z,1.75
2022-09-16T10:52:16.667Z,1.25
2022-09-16T10:54:44.986Z,3.47
2022-09-16T10:57:29.098Z,2.42
2022-09-16T11:00:24.618Z,3.42
2022-09-16T11:03:07.832Z,1.92
2022-09-16T11:05:47.543Z,1.23
2022-09-16T11:08:30.363Z,2.78
2022-09-16T11:11:01.011Z,1.42
2022-09-16T11:13:58.591Z,1.55
2022-09-16T11:16:32.145Z,2.75
2022-09-16T11:19:33.571Z,1.80
2022-09-16T11:22:27.075Z,0.93
2022-09-16T11:25:34.223Z,0.90
2022-09-16T11:28:39.454Z,3.47
2022-09-16T11:31:22.637Z,1.95
2022-09-16T11:34:05.736Z,2.40
2022-09-16T11:36:39.354Z,1.75
2022-09-16T11:39:18.463Z,3.40
2022-09-16T11:41:55.184Z,4.68
2022-09-16T11:44:39.530Z,1.60
2022-09-16T11:47:19.231Z,2.33
2022-09-16T11:50:03.963Z,1.90
2022-09-16T11:52:43.965Z,3.58
2022-09-16T11:55:47.798Z,2.67
2022-09-16T11:58:44.270Z,1.80
2022-09-16T12:01:26.632Z,1.60
2022-09-16T12:04:16.658Z,1.35
2022-09-16T12:07:36.307Z,1.23
2022-09-16T12:10:09.759Z,2.63
2022-09-16T12:12:42.480Z,4.40
2022-09-16T12:15:26.163Z,1.90
2022-09-16T12:18:02.025Z,1.65
2022-09-16T12:20:38.417Z,1.50
2022-09-16T12:23:30.087Z,4.03
2022-09-16T12:26:16.438Z,2.67
2022-09-16T12:29:05.581Z,2.90
2022-09-16T12:31:39.612Z,6.05
2022-09-16T12:34:20.924Z,0.88
2022-09-16T12:37:03.605Z,1.52
2022-09-16T12:39:31.107Z,4.63
2022-09-16T12:42:32.394Z,2.30
2022-09-16T12:45:27.630Z,1.88
2022-09-16T12:48:21.339Z,1.45
2022-09-16T12:51:19.473Z,0.93
2022-09-16T12:54:06.807Z,2.72
2022-09-16T12:57:13.740Z,3.25
2022-09-16T12:59:50.063Z,3.70
2022-09-16T13:02:21.289Z,3.17
2022-09-16T13:04:52.962Z,1.70
2022-09-16T13:07:24.886Z,3.72
2022-09-16T13:10:06.395Z,4.00
2022-09-16T13:12:42.777Z,1.42
2022-09-16T13:15:31.383Z,3.60
2022-09-16T13:18:21.054Z,2.83
2022-09-16T13:20:50.168Z,3.15
2022-09-16T13:23:22.998Z,2.28
2022-09-16T13:25:54.754Z,1.63
2022-09-16T13:28:36.964Z,0.98
2022-09-16T13:31:14.190Z,2.08
2022-09-16T13:33:43.936Z,2.38
2022-09-16T13:36:20.511Z,2.55
2022-09-16T13:39:12.788Z,2.40
2022-09-16T13:41:46.864Z,2.10
2022-09-16T13:44:39.418Z,2.70
2022-09-16T13:47:10.002Z,2.40
2022-09-16T13:49:53.452Z,1.02
2022-09-16T13:52:40.358Z,1.38
2022-09-16T13:55:23.714Z,3.78
2022-09-16T13:58:16.350Z,2.25
2022-09-16T14:00:58.820Z,0.95
2022-09-16T14:04:05.839Z,3.30
2022-09-16T14:07:07.936Z,1.45
2022-09-16T14:09:44.126Z,3.45
2022-09-16T14:12:28.791Z,2.10
2022-09-16T14:14:59.343Z,2.65
2022-09-16T14:17:36.738Z,2.03
2022-09-16T14:20:05.804Z,4.95
2022-09-16T14:22:33.799Z,3.55
2022-09-16T14:25:12.741Z,2.17
2022-09-16T14:27:47.033Z,1.05
2022-09-16T14:30:17.290Z,2.38
2022-09-16T14:32:47.008Z,1.13
2022-09-16T14:35:23.881Z,2.67
2022-09-16T14:38:00.306Z,4.38
2022-09-16T14:40:29.287Z,1.88
2022-09-16T14:43:07.355Z,2.60
2022-09-16T14:45:37.119Z,2.58
2022-09-16T14:48:09.873Z,1.05
2022-09-16T14:50:41.496Z,1.17
2022-09-16T14:53:24.288Z,3.22
2022-09-16T14:58:30.903Z,1.88
2022-09-16T15:01:15.705Z,4.05
2022-09-16T15:03:57.888Z,3.78
2022-09-16T15:06:30.380Z,2.08
2022-09-16T15:09:06.749Z,1.90
2022-09-16T15:11:47.468Z,1.95
2022-09-16T15:14:17.986Z,2.70
2022-09-16T15:16:52.063Z,1.83
2022-09-16T15:19:23.769Z,1.85
2022-09-16T15:21:51.554Z,1.55
2022-09-16T15:24:28.329Z,1.85
2022-09-16T15:26:57.558Z,2.55
2022-09-16T15:29:25.002Z,2.08
2022-09-16T15:31:52.894Z,1.83
2022-09-16T15:34:24.190Z,3.92
2022-09-16T15:37:00.911Z,1.63
2022-09-16T15:39:32.586Z,2.45
2022-09-16T15:42:13.692Z,0.95
2022-09-16T15:44:47.813Z,1.45
2022-09-16T15:47:24.033Z,3.88
2022-09-16T15:50:00.253Z,0.95
2022-09-16T15:52:28.293Z,2.78
2022-09-16T15:55:06.171Z,4.07
2022-09-16T15:57:38.311Z,1.08
2022-09-16T16:00:13.045Z,1.25
2022-09-16T16:02:56.943Z,2.17
2022-09-16T16:05:29.536Z,3.63
2022-09-16T16:08:00.127Z,2.15
2022-09-16T16:10:31.063Z,4.78
2022-09-16T16:13:01.295Z,1.83
2022-09-16T16:15:33.535Z,1.05
2022-09-16T16:18:06.292Z,2.80
2022-09-16T16:20:36.358Z,2.42
2022-09-16T16:23:04.321Z,1.73
2022-09-16T16:25:32.347Z,1.08
2022-09-16T16:27:59.897Z,3.83
2022-09-16T16:30:27.472Z,1.60
2022-09-16T16:32:54.951Z,1.98
2022-09-16T16:35:22.575Z,0.70
2022-09-16T16:37:50.047Z,3.38
2022-09-16T16:40:17.680Z,4.80
2022-09-16T16:42:45.318Z,2.53
2022-09-16T16:45:13.740Z,2.42
2022-09-16T16:47:42.458Z,3.47
2022-09-16T16:50:11.179Z,1.55
2022-09-16T16:52:39.051Z,1.70
2022-09-16T16:55:07.415Z,1.60
2022-09-16T16:57:35.207Z,3.45
2022-09-16T17:00:03.740Z,4.30
2022-09-16T17:02:31.365Z,2.88
2022-09-16T17:04:59.698Z,2.72
2022-09-16T17:07:28.080Z,2.30
2022-09-16T17:09:59.189Z,3.15
2022-09-16T17:12:27.542Z,3.47
2022-09-16T17:14:55.395Z,1.63
2022-09-16T17:17:25.393Z,3.53
2022-09-16T17:19:56.512Z,1.65
2022-09-16T17:22:25.353Z,4.20
2022-09-16T17:24:52.890Z,1.65
2022-09-16T17:27:21.897Z,3.42
2022-09-16T17:29:49.432Z,3.92
2022-09-16T17:32:16.935Z,3.00
2022-09-16T17:34:44.650Z,3.65
2022-09-16T17:37:14.188Z,4.50
2022-09-16T17:39:41.824Z,1.13
2022-09-16T17:42:09.352Z,2.15
2022-09-16T17:44:37.063Z,4.18
2022-09-16T17:47:04.711Z,3.47
2022-09-16T17:49:32.853Z,2.60
2022-09-16T17:52:00.462Z,4.32
2022-09-16T17:54:27.931Z,2.17
2022-09-16T17:56:55.463Z,3.15
2022-09-16T17:59:23.170Z,3.20
2022-09-16T18:01:50.766Z,4.78
2022-09-16T18:04:18.391Z,2.85
2022-09-16T18:06:46.894Z,3.20
2022-09-16T18:09:16.556Z,2.25
2022-09-16T18:11:44.959Z,2.28
2022-09-16T18:14:13.723Z,4.47
2022-09-16T18:16:41.844Z,4.78
2022-09-16T18:19:09.968Z,2.78
2022-09-16T18:21:38.224Z,3.67
2022-09-16T18:24:12.367Z,3.78
2022-09-16T18:26:42.264Z,5.47
2022-09-16T18:29:12.186Z,6.85
2022-09-16T18:31:43.731Z,4.72
2022-09-16T18:34:12.282Z,4.72
2022-09-16T18:36:40.506Z,5.35
2022-09-16T18:39:13.053Z,5.63
2022-09-16T18:41:42.235Z,5.45
2022-09-16T18:44:19.861Z,4.53
2022-09-16T18:46:47.875Z,6.25
2022-09-16T18:49:17.138Z,4.75
2022-09-16T18:51:50.840Z,4.88
2022-09-16T18:54:28.028Z,4.05
2022-09-16T18:56:57.213Z,5.97
2022-09-16T18:59:28.686Z,4.65
2022-09-16T19:01:59.081Z,3.25
2022-09-16T19:04:32.930Z,3.58
2022-09-16T19:07:08.215Z,9.10
2022-09-16T19:09:39.853Z,4.45
2022-09-16T19:12:11.052Z,11.80
2022-09-16T19:14:39.334Z,4.10
2022-09-16T19:17:07.129Z,8.18
2022-09-16T19:19:34.911Z,4.68
2022-09-16T19:22:05.891Z,5.78
2022-09-16T19:24:34.134Z,5.65
2022-09-16T19:27:01.901Z,4.22
2022-09-16T19:29:29.760Z,4.45
2022-09-16T19:31:58.383Z,6.60
2022-09-16T19:34:26.198Z,6.28
2022-09-16T19:36:56.469Z,7.63
2022-09-16T19:39:24.871Z,6.53
2022-09-16T19:41:52.637Z,7.97
2022-09-16T19:44:20.800Z,5.10
2022-09-16T19:46:49.556Z,10.23
2022-09-16T19:49:20.505Z,7.43
2022-09-16T19:51:49.340Z,7.72
2022-09-16T19:54:17.413Z,5.43
2022-09-16T19:56:50.181Z,4.82
2022-09-16T19:59:19.661Z,4.53
2022-09-16T20:01:48.093Z,4.25
2022-09-16T20:04:19.686Z,7.32
2022-09-16T20:09:15.519Z,5.57
2022-09-16T20:11:46.101Z,6.38
2022-09-16T20:14:21.356Z,6.50
2022-09-16T20:16:50.938Z,5.13
2022-09-16T20:19:20.345Z,4.38
2022-09-16T20:21:48.187Z,7.45
2022-09-16T20:24:20.856Z,6.15
2022-09-16T20:26:50.417Z,5.40
2022-09-16T20:29:19.279Z,5.93
2022-09-16T20:31:49.263Z,4.22
2022-09-16T20:34:17.177Z,5.70
2022-09-16T20:36:46.086Z,4.72
2022-09-16T20:39:15.074Z,3.58
2022-09-16T20:41:45.607Z,4.63
2022-09-16T20:44:15.851Z,6.25
2022-09-16T20:46:45.073Z,4.07
2022-09-16T20:49:15.884Z,6.78
2022-09-16T20:51:43.779Z,6.93
2022-09-16T20:54:14.184Z,6.35
2022-09-16T20:56:43.931Z,5.68
2022-09-16T20:59:14.431Z,6.70
2022-09-16T21:01:42.735Z,5.53
2022-09-16T21:04:16.744Z,6.22
2022-09-16T21:06:45.767Z,3.83
2022-09-16T21:09:15.974Z,5.78
2022-09-16T21:11:46.721Z,4.10
2022-09-16T21:14:16.555Z,4.13
2022-09-16T21:16:47.107Z,6.90
2022-09-16T21:19:16.868Z,5.82
2022-09-16T21:21:48.008Z,6.22
2022-09-16T21:24:16.969Z,7.20
2022-09-16T21:26:46.063Z,6.03
2022-09-16T21:29:17.870Z,6.28
2022-09-16T21:31:45.582Z,8.60
2022-09-16T21:34:15.988Z,5.45
2022-09-16T21:36:45.286Z,7.90
2022-09-16T21:39:14.841Z,8.20
2022-09-16T21:41:43.683Z,5.88
2022-09-16T21:44:12.446Z,6.82
2022-09-16T21:46:43.206Z,7.88
2022-09-16T21:49:18.224Z,8.38
2022-09-16T21:51:45.996Z,6.07
2022-09-16T21:54:19.108Z,11.13
2022-09-16T21:56:48.882Z,5.85
2022-09-16T21:59:19.479Z,7.63
2022-09-16T22:01:47.819Z,8.48
2022-09-16T22:04:21.555Z,9.10
2022-09-16T22:06:50.904Z,7.05
2022-09-16T22:09:18.819Z,9.32
2022-09-16T22:11:47.060Z,5.05
2022-09-16T22:14:15.390Z,5.68
2022-09-16T22:16:43.166Z,6.15
2022-09-16T22:19:14.431Z,7.60
2022-09-16T22:21:45.018Z,11.05
2022-09-16T22:24:13.053Z,10.68
2022-09-16T22:26:40.709Z,10.55
2022-09-16T22:29:10.461Z,12.68
2022-09-16T22:31:41.377Z,8.27
2022-09-16T22:34:09.404Z,7.60
2022-09-16T22:36:38.200Z,9.32
2022-09-16T22:39:10.633Z,11.80
2022-09-16T22:41:38.191Z,10.05
2022-09-16T22:44:07.026Z,8.85
2022-09-16T22:46:43.526Z,9.93
2022-09-16T22:49:12.323Z,9.32
2022-09-16T22:51:40.548Z,10.75
2022-09-16T22:54:08.786Z,8.55
2022-09-16T22:56:36.777Z,10.88
2022-09-16T22:59:06.604Z,10.38
2022-09-16T23:01:38.248Z,10.73
2022-09-16T23:06:35.261Z,14.63
2022-09-16T23:09:04.097Z,11.90
2022-09-16T23:11:33.753Z,8.05
2022-09-16T23:14:01.920Z,19.92
2022-09-16T23:16:32.125Z,12.10
2022-09-16T23:19:02.320Z,10.68
2022-09-16T23:21:30.217Z,11.40
2022-09-16T23:24:00.906Z,11.90
2022-09-16T23:26:31.648Z,11.15
2022-09-16T23:29:00.974Z,13.20
2022-09-16T23:31:31.844Z,9.20
2022-09-16T23:34:00.731Z,15.90
2022-09-16T23:36:28.986Z,12.50
2022-09-16T23:38:56.998Z,13.98
2022-09-16T23:41:28.810Z,11.43
2022-09-16T23:43:56.926Z,11.32
2022-09-16T23:46:27.161Z,14.50
2022-09-16T23:48:55.285Z,17.10
2022-09-16T23:51:28.241Z,12.75
2022-09-16T23:53:57.736Z,10.98
2022-09-16T23:56:25.322Z,11.18
2022-09-16T23:58:53.147Z,15.93
